Lemoore Naval Air Station (Reeves Field) Airport
KNLC : now visible

Airfield :











YOU CAN JOIN US ON...

 
LOGIN :

Register | Disclaimer

   EN    FR    IT 

 









Legend :    VFR   Marginal VFR   IFR   Intensive IFR   Very Intensive IFR
Visi :
Ceiling :
>= 8 km
>= 3000ft
5 to 8 km
1000 to 3000 ft
1500m to 5 km
500 to 1000 ft
800 to 1500m
200 to 500 ft
< 800m
< 200 ft
Symbols :   Thunderstorms  Fog  Heavy snow  Heavy precipitations  Wind > 20 kt






- Airport Elevation : 232 ft


KNLC - Lemoore Naval Air Station (Reeves Field)

CURRENT METAR :
  • 080656Z 28005KT 10SM FEW180 06/02 A3036 RMK AO2 SLP281 RH/79 T00560022

EXPIRED METARs :
  • 080556Z 29006KT 10SM FEW180 06/03 A3036 RMK AO2 SLP281 RH/79 T00610028 10144 20056 52011
  • 080456Z 29006KT 10SM FEW180 07/03 A3034 RMK AO2 SLP277 RH/73 T00720028

TAF TAF KNLC
Valid from the 08 at 07:00 until the 09 at 07:00 UTC


0807/0907 VRB06KT 9999 SCT150 QNH3032INS
BECMG 0810/0812 VRB06KT 4800 BR FEW150 QNH3033INS
FM081300 VRB06KT 0800 FG OVC003 QNH3034INS
BECMG 0817/0818 VRB06KT 8000 BR SCT010 QNH3037INS
FM081900 34006KT 9999 SCT150 QNH3029INS AUTOMATED SENSOR METWATCH 0808 TIL 0815 T01/0815Z T14/0823Z FS30184
KZOA FIR / North America



MET'MAP, your aeronautical weather chart ! - Copyright ORBIFLY December 2007 - Disclaimer

ORBIFLY MET'MAP TEAM :

Programming & Development : Alexandra Zaïnal
Original concept : Baudouin d'Aumeries
Technical & hardware support : Manuel Goepfert
Assistance : Marc-Olivier Méhu




SOURCES & CREDITS :

   NOAA       Earth
Advisory